createdAt,value
2022-08-26T00:02:41.091Z,101564.69
2022-08-26T00:05:45.875Z,101613.97
2022-08-26T00:08:48.573Z,101618.81
2022-08-26T00:11:51.274Z,101557.84
2022-08-26T00:14:54.002Z,101632.56
2022-08-26T00:17:56.714Z,101622.09
2022-08-26T00:21:00.829Z,101567.13
2022-08-26T00:24:09.044Z,101598.25
2022-08-26T00:27:11.887Z,101596.63
2022-08-26T00:30:16.134Z,101652.81
2022-08-26T00:33:25.324Z,101649.56
2022-08-26T00:36:30.016Z,101639.09
2022-08-26T00:39:32.736Z,101628.56
2022-08-26T00:42:35.406Z,101587.34
2022-08-26T00:45:42.935Z,101649.59
2022-08-26T00:48:45.657Z,101635.84
2022-08-26T00:51:51.802Z,101612.44
2022-08-26T00:54:56.332Z,101632.22
2022-08-26T00:57:58.975Z,101641.94
2022-08-26T01:01:02.144Z,101646.38
2022-08-26T01:04:05.820Z,101634.25
2022-08-26T01:07:09.864Z,101622.13
2022-08-26T01:10:13.973Z,101567.13
2022-08-26T01:13:16.588Z,101642.75
2022-08-26T01:16:24.871Z,101623.72
2022-08-26T01:19:30.144Z,101612.81
2022-08-26T01:22:41.996Z,101637.50
2022-08-26T01:25:47.631Z,101649.63
2022-08-26T01:28:53.796Z,101642.34
2022-08-26T01:31:57.197Z,101622.53
2022-08-26T01:34:59.973Z,101648.00
2022-08-26T01:38:04.599Z,101601.88
2022-08-26T01:41:16.051Z,101649.63
2022-08-26T01:44:23.511Z,101652.44
2022-08-26T01:47:27.286Z,101648.81
2022-08-26T01:50:34.145Z,101656.88
2022-08-26T01:53:38.209Z,101655.25
2022-08-26T01:56:44.421Z,101624.50
2022-08-26T01:59:47.248Z,101614.78
2022-08-26T02:02:51.263Z,101621.66
2022-08-26T02:05:55.102Z,101664.16
2022-08-26T02:08:59.434Z,101606.28
2022-08-26T02:12:02.105Z,101567.88
2022-08-26T02:15:06.659Z,101588.06
2022-08-26T02:18:09.755Z,101653.59
2022-08-26T02:21:16.893Z,101651.19
2022-08-26T02:24:23.003Z,101642.69
2022-08-26T02:27:27.536Z,101648.34
2022-08-26T02:30:33.333Z,101643.09
2022-08-26T02:33:37.167Z,101646.31
2022-08-26T02:36:45.887Z,101662.50
2022-08-26T02:39:50.641Z,101659.66
2022-08-26T02:42:56.994Z,101645.91
2022-08-26T02:46:01.982Z,101654.00
2022-08-26T02:49:05.152Z,101659.25
2022-08-26T02:52:08.631Z,101653.19
2022-08-26T02:55:12.860Z,101622.03
2022-08-26T02:58:15.781Z,101660.84
2022-08-26T03:01:23.031Z,101657.25
2022-08-26T03:04:26.120Z,101652.78
2022-08-26T03:07:28.941Z,101638.22
2022-08-26T03:13:37.425Z,101651.19
2022-08-26T03:16:40.199Z,101605.88
2022-08-26T03:19:43.021Z,101581.63
2022-08-26T03:22:47.310Z,101608.72
2022-08-26T03:25:53.110Z,101642.69
2022-08-26T03:29:13.241Z,101605.88
2022-08-26T03:32:16.924Z,101632.16
2022-08-26T03:35:19.654Z,101633.38
2022-08-26T03:38:26.157Z,101615.19
2022-08-26T03:41:32.603Z,101537.16
2022-08-26T03:44:35.267Z,101637.44
2022-08-26T03:47:38.215Z,101633.38
2022-08-26T03:50:40.905Z,101568.69
2022-08-26T03:53:43.735Z,101624.91
2022-08-26T03:56:47.826Z,101599.41
2022-08-26T03:59:50.479Z,101617.22
2022-08-26T04:02:54.567Z,101622.47
2022-08-26T04:05:57.321Z,101570.31
2022-08-26T04:09:01.086Z,101561.38
2022-08-26T04:12:06.844Z,101636.59
2022-08-26T04:15:11.835Z,101634.16
2022-08-26T04:18:14.521Z,101558.16
2022-08-26T04:21:17.242Z,101626.91
2022-08-26T04:24:20.364Z,101545.19
2022-08-26T04:27:24.589Z,101544.38
2022-08-26T04:30:28.140Z,101635.78
2022-08-26T04:33:32.393Z,101636.56
2022-08-26T04:36:36.041Z,101646.28
2022-08-26T04:39:38.767Z,101634.16
2022-08-26T04:42:42.823Z,101636.19
2022-08-26T04:45:45.568Z,101641.41
2022-08-26T04:48:51.007Z,101645.06
2022-08-26T04:51:54.863Z,101582.28
2022-08-26T04:54:57.683Z,101652.31
2022-08-26T04:58:01.794Z,101656.75
2022-08-26T05:04:08.196Z,101646.25
2022-08-26T05:07:11.354Z,101659.63
2022-08-26T05:10:14.027Z,101658.41
2022-08-26T05:13:20.602Z,101656.78
2022-08-26T05:16:23.287Z,101644.63
2022-08-26T05:19:27.999Z,101660.00
2022-08-26T05:22:30.672Z,101634.91
2022-08-26T05:25:33.580Z,101669.69
2022-08-26T05:28:37.656Z,101674.53
2022-08-26T05:31:40.480Z,101678.56
2022-08-26T05:34:43.322Z,101671.72
2022-08-26T05:37:46.035Z,101670.50
2022-08-26T05:40:52.746Z,101664.00
2022-08-26T05:43:56.959Z,101672.09
2022-08-26T05:46:59.591Z,101662.00
2022-08-26T05:50:05.773Z,101662.38
2022-08-26T05:53:08.896Z,101653.91
2022-08-26T05:56:11.951Z,101646.22
2022-08-26T05:59:16.001Z,101668.84
2022-08-26T06:02:24.119Z,101689.94
2022-08-26T06:05:26.863Z,101682.66
2022-08-26T06:08:31.099Z,101671.72
2022-08-26T06:11:33.726Z,101701.28
2022-08-26T06:14:38.320Z,101688.31
2022-08-26T06:17:41.163Z,101691.56
2022-08-26T06:20:57.740Z,101697.22
2022-08-26T06:24:20.534Z,101682.59
2022-08-26T06:27:32.813Z,101713.78
2022-08-26T06:30:40.532Z,101714.19
2022-08-26T06:33:43.459Z,101709.31
2022-08-26T06:36:49.236Z,101708.50
2022-08-26T06:39:55.722Z,101719.81
2022-08-26T06:43:00.536Z,101731.16
2022-08-26T06:46:06.040Z,101701.59
2022-08-26T06:49:10.159Z,101720.25
2022-08-26T06:52:13.004Z,101729.56
2022-08-26T06:55:16.089Z,101649.38
2022-08-26T06:58:20.989Z,101727.13
2022-08-26T07:01:25.844Z,101736.00
2022-08-26T07:04:28.842Z,101713.34
2022-08-26T07:07:32.023Z,101716.97
2022-08-26T07:10:34.663Z,101645.31
2022-08-26T07:13:38.929Z,101723.03
2022-08-26T07:16:43.953Z,101676.47
2022-08-26T07:19:46.675Z,101680.53
2022-08-26T07:22:49.344Z,101737.59
2022-08-26T07:25:52.458Z,101748.13
2022-08-26T07:28:55.980Z,101727.06
2022-08-26T07:32:00.664Z,101746.06
2022-08-26T07:35:03.261Z,101762.63
2022-08-26T07:38:05.893Z,101773.94
2022-08-26T07:41:09.533Z,101735.84
2022-08-26T07:44:12.192Z,101777.94
2022-08-26T07:47:25.300Z,101777.91
2022-08-26T07:50:47.090Z,101780.75
2022-08-26T07:53:52.300Z,101785.19
2022-08-26T07:56:55.823Z,101707.72
2022-08-26T07:59:58.675Z,101788.44
2022-08-26T08:03:03.026Z,101764.19
2022-08-26T08:06:06.120Z,101788.50
2022-08-26T08:09:08.898Z,101735.84
2022-08-26T08:12:14.002Z,101777.19
2022-08-26T08:15:17.013Z,101772.28
2022-08-26T08:18:23.028Z,101747.59
2022-08-26T08:21:26.055Z,101796.19
2022-08-26T08:24:29.014Z,101794.19
2022-08-26T08:27:34.217Z,101746.38
2022-08-26T08:30:39.388Z,101791.00
2022-08-26T08:33:43.413Z,101785.31
2022-08-26T08:36:46.575Z,101794.31
2022-08-26T08:39:49.261Z,101740.84
2022-08-26T08:42:55.109Z,101797.59
2022-08-26T08:45:58.800Z,101791.94
2022-08-26T08:49:04.483Z,101761.19
2022-08-26T08:52:10.719Z,101727.97
2022-08-26T08:55:17.750Z,101798.47
2022-08-26T08:58:23.379Z,101776.63
2022-08-26T09:01:31.079Z,101792.00
2022-08-26T09:05:04.418Z,101794.88
2022-08-26T09:08:09.366Z,101800.53
2022-08-26T09:11:15.166Z,101795.28
2022-08-26T09:14:19.953Z,101764.50
2022-08-26T09:17:27.841Z,101799.31
2022-08-26T09:20:37.718Z,101781.06
2022-08-26T09:23:42.962Z,101803.31
2022-08-26T09:26:47.588Z,101787.16
2022-08-26T09:29:50.716Z,101786.38
2022-08-26T09:33:00.174Z,101784.34
2022-08-26T09:36:22.732Z,101755.59
2022-08-26T09:39:30.791Z,101790.41
2022-08-26T09:42:33.828Z,101787.97
2022-08-26T09:45:36.797Z,101805.34
2022-08-26T09:48:41.053Z,101793.59
2022-08-26T09:51:45.175Z,101791.19
2022-08-26T09:55:02.033Z,101819.53
2022-08-26T09:58:08.742Z,101812.66
2022-08-26T10:01:16.321Z,101793.59
2022-08-26T10:04:21.889Z,101808.19
2022-08-26T10:07:41.505Z,101800.91
2022-08-26T10:10:45.192Z,101774.22
2022-08-26T10:13:49.168Z,101757.22
2022-08-26T10:16:54.462Z,101783.16
2022-08-26T10:20:00.485Z,101784.78
2022-08-26T10:23:06.619Z,101769.78
2022-08-26T10:26:11.706Z,101746.69
2022-08-26T10:29:16.759Z,101793.66
2022-08-26T10:32:24.029Z,101739.41
2022-08-26T10:35:28.113Z,101759.66
2022-08-26T10:38:34.686Z,101805.81
2022-08-26T10:41:38.700Z,101787.19
2022-08-26T10:44:43.714Z,101801.78
2022-08-26T10:47:48.883Z,101814.72
2022-08-26T10:50:51.858Z,101815.53
2022-08-26T10:53:59.624Z,101811.84
2022-08-26T10:57:03.700Z,101798.91
2022-08-26T11:00:29.928Z,101743.88
2022-08-26T11:03:36.145Z,101801.72
2022-08-26T11:06:40.159Z,101772.59
2022-08-26T11:09:46.848Z,101820.38
2022-08-26T11:12:57.731Z,101795.25
2022-08-26T11:16:01.278Z,101752.78
2022-08-26T11:19:04.081Z,101810.56
2022-08-26T11:22:07.400Z,101819.09
2022-08-26T11:25:13.365Z,101802.44
2022-08-26T11:28:25.771Z,101800.03
2022-08-26T11:31:53.066Z,101825.94
2022-08-26T11:34:57.001Z,101782.63
2022-08-26T11:38:02.296Z,101819.03
2022-08-26T11:41:11.447Z,101761.59
2022-08-26T11:44:18.292Z,101821.91
2022-08-26T11:47:28.846Z,101797.59
2022-08-26T11:50:32.119Z,101809.78
2022-08-26T11:53:37.016Z,101764.44
2022-08-26T11:56:41.923Z,101773.31
2022-08-26T11:59:44.685Z,101812.97
2022-08-26T12:02:47.663Z,101802.50
2022-08-26T12:05:51.985Z,101781.00
2022-08-26T12:08:54.686Z,101812.56
2022-08-26T12:12:12.181Z,101807.28
2022-08-26T12:15:18.066Z,101788.69
2022-08-26T12:18:40.432Z,101800.75
2022-08-26T12:21:48.897Z,101775.69
2022-08-26T12:24:53.627Z,101816.94
2022-08-26T12:27:57.613Z,101813.66
2022-08-26T12:31:01.692Z,101745.69
2022-08-26T12:34:06.035Z,101796.56
2022-08-26T12:37:19.966Z,101804.25
2022-08-26T12:40:27.764Z,101757.00
2022-08-26T12:43:42.082Z,101748.00
2022-08-26T12:46:49.209Z,101787.56
2022-08-26T12:50:00.966Z,101816.56
2022-08-26T12:53:05.520Z,101765.66
2022-08-26T12:56:20.079Z,101800.34
2022-08-26T12:59:25.397Z,101774.13
2022-08-26T13:02:37.341Z,101822.03
2022-08-26T13:05:40.165Z,101817.09
2022-08-26T13:08:42.939Z,101821.16
2022-08-26T13:11:58.622Z,101817.97
2022-08-26T13:15:04.923Z,101779.31
2022-08-26T13:18:07.582Z,101827.00
2022-08-26T13:21:14.308Z,101825.44
2022-08-26T13:24:17.988Z,101833.19
2022-08-26T13:27:21.891Z,101828.00
2022-08-26T13:30:26.100Z,101823.19
2022-08-26T13:33:28.802Z,101821.97
2022-08-26T13:36:31.468Z,101794.84
2022-08-26T13:39:34.340Z,101762.53
2022-08-26T13:42:36.916Z,101784.72
2022-08-26T13:45:53.537Z,101819.94
2022-08-26T13:48:56.163Z,101816.31
2022-08-26T13:51:58.775Z,101800.56
2022-08-26T13:55:01.473Z,101782.78
2022-08-26T13:58:04.060Z,101818.28
2022-08-26T14:01:09.000Z,101800.50
2022-08-26T14:04:11.636Z,101820.69
2022-08-26T14:07:14.295Z,101814.94
2022-08-26T14:10:16.871Z,101810.88
2022-08-26T14:13:20.489Z,101803.59
2022-08-26T14:16:26.607Z,101809.25
2022-08-26T14:19:30.569Z,101798.34
2022-08-26T14:22:33.143Z,101798.25
2022-08-26T14:25:35.756Z,101797.81
2022-08-26T14:28:38.422Z,101794.94
2022-08-26T14:31:43.469Z,101799.75
2022-08-26T14:34:46.380Z,101789.59
2022-08-26T14:37:49.105Z,101792.91
2022-08-26T14:40:52.134Z,101792.09
2022-08-26T14:43:57.863Z,101778.41
2022-08-26T14:47:02.838Z,101768.72
2022-08-26T14:50:06.410Z,101722.63
2022-08-26T14:53:26.830Z,101797.31
2022-08-26T14:56:29.504Z,101792.91
2022-08-26T14:59:35.698Z,101791.28
2022-08-26T15:02:39.671Z,101800.22
2022-08-26T15:05:48.026Z,101801.88
2022-08-26T15:08:50.987Z,101797.88
2022-08-26T15:11:54.050Z,101799.50
2022-08-26T15:14:56.654Z,101801.13
2022-08-26T15:18:00.702Z,101753.03
2022-08-26T15:21:03.330Z,101779.31
2022-08-26T15:24:06.163Z,101789.88
2022-08-26T15:27:09.034Z,101774.56
2022-08-26T15:30:12.706Z,101779.44
2022-08-26T15:33:16.659Z,101777.81
2022-08-26T15:36:19.287Z,101768.88
2022-08-26T15:39:24.365Z,101700.59
2022-08-26T15:42:27.050Z,101773.69
2022-08-26T15:45:29.673Z,101709.84
2022-08-26T15:48:33.634Z,101778.50
2022-08-26T15:51:45.897Z,101727.56
2022-08-26T15:54:52.033Z,101768.34
2022-08-26T15:57:54.663Z,101709.81
2022-08-26T16:00:57.563Z,101760.72
2022-08-26T16:04:01.546Z,101696.06
2022-08-26T16:07:04.304Z,101761.50
2022-08-26T16:10:07.838Z,101737.31
2022-08-26T16:13:12.941Z,101736.56
2022-08-26T16:16:17.448Z,101727.69
2022-08-26T16:19:21.374Z,101758.34
2022-08-26T16:22:24.013Z,101682.88
2022-08-26T16:25:31.342Z,101692.22
2022-08-26T16:28:33.938Z,101761.72
2022-08-26T16:31:38.236Z,101736.69
2022-08-26T16:34:56.770Z,101748.06
2022-08-26T16:37:59.577Z,101744.91
2022-08-26T16:41:02.160Z,101761.91
2022-08-26T16:44:05.151Z,101761.88
2022-08-26T16:47:07.951Z,101755.03
2022-08-26T16:50:12.868Z,101722.69
2022-08-26T16:53:15.562Z,101730.00
2022-08-26T16:56:19.034Z,101754.66
2022-08-26T16:59:21.857Z,101762.41
2022-08-26T17:02:24.531Z,101763.22
2022-08-26T17:05:29.649Z,101761.22
2022-08-26T17:08:32.626Z,101757.59
2022-08-26T17:11:35.393Z,101762.03
2022-08-26T17:14:37.965Z,101721.63
2022-08-26T17:17:40.808Z,101739.44
2022-08-26T17:20:46.623Z,101768.56
2022-08-26T17:23:49.278Z,101768.56
2022-08-26T17:26:55.502Z,101772.59
2022-08-26T17:29:58.313Z,101698.56
2022-08-26T17:33:00.946Z,101726.47
2022-08-26T17:36:14.856Z,101764.09
2022-08-26T17:39:17.488Z,101746.69
2022-08-26T17:42:20.173Z,101753.56
2022-08-26T17:45:22.917Z,101778.25
2022-08-26T17:48:25.510Z,101758.03
2022-08-26T17:51:31.553Z,101777.84
2022-08-26T17:54:34.213Z,101706.13
2022-08-26T17:57:40.792Z,101768.50
2022-08-26T18:00:46.156Z,101794.41
2022-08-26T18:03:49.021Z,101775.75
2022-08-26T18:06:53.016Z,101778.97
2022-08-26T18:09:55.859Z,101791.94
2022-08-26T18:12:58.505Z,101787.06
2022-08-26T18:16:01.199Z,101795.16
2022-08-26T18:19:03.856Z,101780.53
2022-08-26T18:22:07.852Z,101796.75
2022-08-26T18:25:10.731Z,101791.41
2022-08-26T18:28:13.315Z,101799.91
2022-08-26T18:31:16.286Z,101802.28
2022-08-26T18:34:19.430Z,101805.50
2022-08-26T18:37:24.911Z,101806.31
2022-08-26T18:40:29.552Z,101793.28
2022-08-26T18:43:32.245Z,101788.38
2022-08-26T18:46:34.932Z,101822.38
2022-08-26T18:49:37.911Z,101775.28
2022-08-26T18:52:41.856Z,101731.56
2022-08-26T18:55:44.406Z,101822.34
2022-08-26T18:58:47.225Z,101824.34
2022-08-26T19:01:50.516Z,101814.56
2022-08-26T19:04:53.364Z,101825.09
2022-08-26T19:07:57.389Z,101821.03
2022-08-26T19:11:00.239Z,101840.78
2022-08-26T19:14:03.115Z,101828.59
2022-08-26T19:17:06.129Z,101775.00
2022-08-26T19:20:10.297Z,101834.66
2022-08-26T19:23:30.478Z,101800.09
2022-08-26T19:26:34.267Z,101820.34
2022-08-26T19:29:37.082Z,101808.94
2022-08-26T19:32:39.774Z,101829.19
2022-08-26T19:35:42.752Z,101776.44
2022-08-26T19:38:47.576Z,101787.00
2022-08-26T19:41:50.397Z,101843.69
2022-08-26T19:45:06.945Z,101824.97
2022-08-26T19:48:12.472Z,101838.75
2022-08-26T19:51:15.703Z,101841.16
2022-08-26T19:54:27.167Z,101828.50
2022-08-26T19:57:29.848Z,101840.31
2022-08-26T20:00:33.591Z,101841.00
2022-08-26T20:03:36.840Z,101853.94
2022-08-26T20:06:39.734Z,101801.88
2022-08-26T20:09:43.882Z,101850.59
2022-08-26T20:12:46.655Z,101843.28
2022-08-26T20:15:49.409Z,101814.34
2022-08-26T20:19:09.923Z,101813.13
2022-08-26T20:22:12.762Z,101844.81
2022-08-26T20:25:16.945Z,101846.78
2022-08-26T20:28:19.609Z,101823.59
2022-08-26T20:31:22.435Z,101846.28
2022-08-26T20:34:26.234Z,101841.38
2022-08-26T20:37:29.224Z,101797.81
2022-08-26T20:40:37.492Z,101849.75
2022-08-26T20:43:40.119Z,101847.28
2022-08-26T20:46:42.864Z,101810.28
2022-08-26T20:49:45.593Z,101832.16
2022-08-26T20:52:48.260Z,101770.34
2022-08-26T20:55:53.740Z,101786.94
2022-08-26T20:58:58.364Z,101768.84
2022-08-26T21:02:01.077Z,101756.16
2022-08-26T21:05:03.894Z,101826.69
2022-08-26T21:08:06.648Z,101846.16
2022-08-26T21:11:11.581Z,101844.00
2022-08-26T21:14:15.865Z,101823.88
2022-08-26T21:17:19.833Z,101844.91
2022-08-26T21:20:22.710Z,101817.25
2022-08-26T21:23:29.182Z,101844.78
2022-08-26T21:26:33.359Z,101814.97
2022-08-26T21:29:36.887Z,101845.13
2022-08-26T21:32:39.843Z,101818.69
2022-08-26T21:35:42.538Z,101838.94
2022-08-26T21:38:45.238Z,101833.16
2022-08-26T21:41:49.349Z,101819.75
2022-08-26T21:44:53.307Z,101820.69
2022-08-26T21:47:55.967Z,101826.13
2022-08-26T21:50:58.640Z,101804.69
2022-08-26T21:54:01.805Z,101815.13
2022-08-26T21:57:06.343Z,101750.75
2022-08-26T22:00:10.863Z,101823.81
2022-08-26T22:03:13.535Z,101821.09
2022-08-26T22:06:17.389Z,101764.63
2022-08-26T22:09:21.068Z,101771.25
2022-08-26T22:12:25.267Z,101853.59
2022-08-26T22:15:27.977Z,101842.91
2022-08-26T22:18:30.801Z,101791.66
2022-08-26T22:21:34.014Z,101834.72
2022-08-26T22:24:36.735Z,101820.81
2022-08-26T22:27:42.847Z,101854.25
2022-08-26T22:30:46.025Z,101846.84
2022-08-26T22:33:48.642Z,101795.38
2022-08-26T22:36:51.394Z,101867.72
2022-08-26T22:39:54.484Z,101837.97
2022-08-26T22:42:59.978Z,101805.66
2022-08-26T22:46:03.296Z,101833.25
2022-08-26T22:49:06.455Z,101847.16
2022-08-26T22:52:09.142Z,101844.72
2022-08-26T22:55:11.832Z,101842.25
2022-08-26T22:58:16.898Z,101832.38
2022-08-26T23:01:19.678Z,101832.50
2022-08-26T23:04:22.476Z,101845.38
2022-08-26T23:07:25.178Z,101799.66
2022-08-26T23:10:27.918Z,101769.41
2022-08-26T23:13:32.025Z,101798.78
2022-08-26T23:16:37.924Z,101814.16
2022-08-26T23:19:42.252Z,101806.00
2022-08-26T23:22:45.025Z,101821.09
2022-08-26T23:25:47.735Z,101836.69
2022-08-26T23:28:53.261Z,101802.75
2022-08-26T23:31:56.075Z,101807.63
2022-08-26T23:35:00.511Z,101825.91
2022-08-26T23:38:03.555Z,101824.63
2022-08-26T23:41:06.767Z,101830.19
2022-08-26T23:44:11.529Z,101828.47
2022-08-26T23:47:16.721Z,101777.88
2022-08-26T23:50:19.661Z,101779.41
2022-08-26T23:53:21.993Z,101821.34
2022-08-26T23:56:24.621Z,101825.03
2022-08-26T23:59:30.820Z,101829.00
